lundi 10 février 2014

ALERTE SPOTTING 10/02/14


AT4 HB-AFF Farnair Europe
  A5 210/A58215 07h50/08h20

BEH F-GVLC Atlantique Air Assistance (blanc avec logo)
   A58216/A231 08h35/09h05
A5234/A58217 19h30/20h00

230 G-EZUG easyJet (sticker Moscow)
   dpt U24067
    U24068/U29001 -/19h00


 Manque les prévisions/immats Air Europa / Flybe / AZ / TAP / BA / certains Air Algérie
*** Heures en Local Time / prévisions soumises
 à modifications de dernières minutes ***

le TAF de la journée



METAR: LFPO 100330Z 10003KT CAVOK 05/01 Q0990 NOSIG=
TAF LONG: LFPO 092300Z 1000/1106 14005KT CAVOK BECMG 1006/1009 34008KT
PROB40 TEMPO 1012/1018 BKN012 BECMG 1013/1015 24008KT PROB30 TEMPO
1100/1106 BKN012=
 Les logs des jours précédents :
 http://www.airkalo.com/ORLYAVIATION/Logdumois.html